Startpagina
METAR-TAF:

METAR-TAF

Vliegvelden :

Francistown Airport

Francistown, Botswana

breedte: 21-13S, lengte: 027-30E, hoogte: 1001 m

Actueel weer

Dit bericht is 1 uur en het 34 minuten geleden gemaakt, om 17:00 UTC
Wind 7 kt uit het oosten
Temperatuur 29°C
Vochtigheid 45%
Druk 1016 hPa
Zicht 10 km of meer
Weinig wolken op 3000 ft

METAR: FBFT 181700Z 09007KT 9999 FEW030 29/16 Q1016

Tijdstip: 20:34 (18:34 UTC)

Verwachting

Dit bericht is 6 uur en het 34 minuten geleden gemaakt, om 12:00 UTC
Verwachting geldig van 18 om 15 UTC tot 18 om 24 UTC
Wind 12 kt uit het oostzuidoosten
Zicht 10 km of meer
Verspreide wolken op 3000 ft
Weinig wolken op 3500 ft, Cumulonimbus.
Wijzigt naar
van 18 om 18 UTC tot 18 om 20 UTC
Zicht 10 km of meer
geen wolken onder 1500 m en geen cumulonimbus

TAF: FBFT 181200Z 1815/1824 11012KT 9999 SCT030 FEW035CB BECMG 1818/1820 CAVOK

Waarnemingen en weersverwachtingen van meer dan 4000 vliegvelden (METAR en TAF).

De beschikbare stations zijn de gele en rode punten op de kaart.

Ga met uw muis naar het station om de naam te zien.

Klik dan om waarnemingen en weersverwachtingen te zien.

kaart wijzigen: klik op de groene knoppen met een zwart kruis om in te zoomen, op de groene knop met een streepje om uit te zoomen of op de groene pijlen voor aangrenzende kaarten.


METAR-TAF: